Time,TemperatureF,DewpointF,PressureIn,WindDirection,WindDirectionDegrees,WindSpeedMPH,WindSpeedGustMPH,Humidity,HourlyPrecipIn,Conditions,Clouds,dailyrainin,SoftwareType,DateUTC
2013-03-10 00:01:00,36.0,26.0,30.30,West,261,1.0,7.0,67,0.00,,,0.00,,2013-03-10 07:01:00,
2013-03-10 00:11:00,35.0,26.0,30.30,WSW,250,0.0,4.0,68,0.00,,,0.00,,2013-03-10 07:11:00,
2013-03-10 00:21:00,35.0,26.0,30.30,WSW,250,0.0,4.0,68,0.00,,,0.00,,2013-03-10 07:21:00,
2013-03-10 00:31:00,35.0,26.0,30.30,SW,215,0.0,4.0,69,0.00,,,0.00,,2013-03-10 07:31:00,
2013-03-10 00:41:00,34.0,25.0,30.30,WSW,248,0.0,4.0,70,0.00,,,0.00,,2013-03-10 07:41:00,
2013-03-10 00:52:00,34.0,25.0,30.30,WSW,248,0.0,4.0,70,0.00,,,0.00,,2013-03-10 07:52:00,
2013-03-10 01:01:00,33.0,25.0,30.30,WSW,245,0.0,3.0,71,0.00,,,0.00,,2013-03-10 08:01:00,
2013-03-10 01:11:00,33.0,25.0,30.30,WSW,245,0.0,3.0,71,0.00,,,0.00,,2013-03-10 08:11:00,
2013-03-10 01:21:00,32.0,24.0,30.30,SW,224,1.0,4.0,73,0.00,,,0.00,,2013-03-10 08:21:00,
2013-03-10 01:31:00,32.0,25.0,30.30,SW,221,0.0,4.0,74,0.00,,,0.00,,2013-03-10 08:31:00,
2013-03-10 01:42:00,32.0,25.0,30.30,SW,221,0.0,4.0,74,0.00,,,0.00,,2013-03-10 08:42:00,
2013-03-10 01:51:00,32.0,25.0,30.30,SW,221,0.0,3.0,75,0.00,,,0.00,,2013-03-10 08:51:00,
2013-03-10 03:01:00,31.0,25.0,30.30,SW,221,0.0,1.0,77,0.00,,,0.00,,2013-03-10 09:01:00,
2013-03-10 03:11:00,31.0,25.0,30.30,SW,221,0.0,1.0,77,0.00,,,0.00,,2013-03-10 09:11:00,
2013-03-10 03:21:00,30.0,24.0,30.31,SW,222,1.0,3.0,78,0.00,,,0.00,,2013-03-10 09:21:00,
2013-03-10 03:31:00,30.0,24.0,30.30,SSW,213,0.0,2.0,79,0.00,,,0.00,,2013-03-10 09:31:00,
2013-03-10 03:41:00,30.0,24.0,30.30,SSW,213,0.0,2.0,79,0.00,,,0.00,,2013-03-10 09:41:00,
2013-03-10 03:51:00,29.0,24.0,30.31,SSE,148,0.0,1.0,80,0.00,,,0.00,,2013-03-10 09:51:00,
2013-03-10 04:01:00,29.0,24.0,30.31,SSE,158,0.0,2.0,81,0.00,,,0.00,,2013-03-10 10:01:00,
2013-03-10 04:11:00,29.0,24.0,30.31,SSE,158,0.0,2.0,81,0.00,,,0.00,,2013-03-10 10:11:00,
2013-03-10 04:21:00,28.0,23.0,30.32,NW,306,2.0,4.0,82,0.00,,,0.00,,2013-03-10 10:21:00,
2013-03-10 04:31:00,27.0,23.0,30.30,NW,312,0.0,4.0,83,0.00,,,0.00,,2013-03-10 10:31:00,
2013-03-10 04:41:00,27.0,23.0,30.30,NW,312,0.0,1.0,84,0.00,,,0.00,,2013-03-10 10:41:00,
2013-03-10 04:51:00,27.0,23.0,30.30,NW,312,0.0,1.0,84,0.00,,,0.00,,2013-03-10 10:51:00,
2013-03-10 05:01:00,27.0,23.0,30.30,NW,312,0.0,1.0,84,0.00,,,0.00,,2013-03-10 11:01:00,
2013-03-10 05:11:00,26.0,22.0,30.30,NW,312,0.0,1.0,86,0.00,,,0.00,,2013-03-10 11:11:00,
2013-03-10 05:21:00,26.0,22.0,30.30,NW,312,0.0,1.0,86,0.00,,,0.00,,2013-03-10 11:21:00,
2013-03-10 05:31:00,26.0,22.0,30.31,NW,312,0.0,0.0,86,0.00,,,0.00,,2013-03-10 11:31:00,
2013-03-10 05:42:00,26.0,22.0,30.31,NW,312,0.0,0.0,86,0.00,,,0.00,,2013-03-10 11:42:00,
2013-03-10 05:52:00,26.0,23.0,30.32,NW,312,0.0,1.0,87,0.00,,,0.00,,2013-03-10 11:52:00,
2013-03-10 06:01:00,26.0,23.0,30.32,NW,312,0.0,2.0,87,0.00,,,0.00,,2013-03-10 12:01:00,
2013-03-10 06:11:00,26.0,23.0,30.32,NW,312,0.0,2.0,87,0.00,,,0.00,,2013-03-10 12:11:00,
2013-03-10 06:21:00,26.0,23.0,30.32,NW,312,1.0,2.0,87,0.00,,,0.00,,2013-03-10 12:21:00,
2013-03-10 06:31:00,25.0,22.0,30.32,NW,312,0.0,2.0,87,0.00,,,0.00,,2013-03-10 12:31:00,
2013-03-10 06:41:00,25.0,22.0,30.32,NW,312,0.0,2.0,87,0.00,,,0.00,,2013-03-10 12:41:00,
2013-03-10 06:51:00,25.0,22.0,30.32,NW,312,0.0,1.0,88,0.00,,,0.00,,2013-03-10 12:51:00,
2013-03-10 07:01:00,25.0,22.0,30.32,NW,312,0.0,2.0,88,0.00,,,0.00,,2013-03-10 13:01:00,
2013-03-10 07:11:00,25.0,22.0,30.32,NW,312,0.0,2.0,88,0.00,,,0.00,,2013-03-10 13:11:00,
2013-03-10 07:21:00,25.0,22.0,30.32,NW,312,0.0,2.0,89,0.00,,,0.00,,2013-03-10 13:21:00,
2013-03-10 07:31:00,25.0,22.0,30.32,NW,312,0.0,2.0,89,0.00,,,0.00,,2013-03-10 13:31:00,
2013-03-10 07:41:00,25.0,22.0,30.32,NW,312,0.0,2.0,89,0.00,,,0.00,,2013-03-10 13:41:00,
2013-03-10 07:52:00,25.0,22.0,30.32,NW,312,0.0,0.0,89,0.00,,,0.00,,2013-03-10 13:52:00,
2013-03-10 08:01:00,24.0,21.0,30.32,NW,312,0.0,1.0,89,0.00,,,0.00,,2013-03-10 14:01:00,
2013-03-10 08:11:00,24.0,21.0,30.32,NW,312,0.0,1.0,89,0.00,,,0.00,,2013-03-10 14:11:00,
2013-03-10 08:21:00,24.0,22.0,30.32,NW,312,0.0,2.0,90,0.00,,,0.00,,2013-03-10 14:21:00,
2013-03-10 08:31:00,24.0,22.0,30.31,NW,312,0.0,0.0,90,0.00,,,0.00,,2013-03-10 14:31:00,
2013-03-10 08:41:00,24.0,22.0,30.31,NW,312,0.0,0.0,90,0.00,,,0.00,,2013-03-10 14:41:00,
2013-03-10 08:51:00,24.0,22.0,30.31,NW,312,0.0,1.0,91,0.00,,,0.00,,2013-03-10 14:51:00,
2013-03-10 09:01:00,24.0,22.0,30.31,NW,312,0.0,1.0,91,0.00,,,0.00,,2013-03-10 15:01:00,
2013-03-10 09:11:00,24.0,22.0,30.31,NW,312,0.0,1.0,91,0.00,,,0.00,,2013-03-10 15:11:00,
2013-03-10 09:21:00,25.0,23.0,30.31,NW,312,0.0,0.0,91,0.00,,,0.00,,2013-03-10 15:21:00,
2013-03-10 09:31:00,26.0,24.0,30.32,NW,312,0.0,3.0,92,0.00,,,0.00,,2013-03-10 15:31:00,
2013-03-10 09:41:00,26.0,24.0,30.32,NW,312,0.0,3.0,92,0.00,,,0.00,,2013-03-10 15:41:00,
2013-03-10 09:51:00,27.0,25.0,30.32,NNW,331,0.0,3.0,92,0.00,,,0.00,,2013-03-10 15:51:00,
2013-03-10 10:01:00,27.0,25.0,30.32,NNW,331,0.0,1.0,91,0.00,,,0.00,,2013-03-10 16:01:00,
2013-03-10 10:11:00,27.0,25.0,30.32,NNW,331,0.0,1.0,91,0.00,,,0.00,,2013-03-10 16:11:00,
2013-03-10 10:21:00,28.0,25.0,30.30,NNW,331,0.0,0.0,90,0.00,,,0.00,,2013-03-10 16:21:00,
2013-03-10 10:31:00,29.0,26.0,30.30,NNW,331,0.0,1.0,90,0.00,,,0.00,,2013-03-10 16:31:00,
2013-03-10 10:41:00,29.0,26.0,30.30,NNW,331,0.0,1.0,90,0.00,,,0.00,,2013-03-10 16:41:00,
2013-03-10 10:51:00,30.0,27.0,30.30,NW,325,0.0,2.0,88,0.00,,,0.00,,2013-03-10 16:51:00,
2013-03-10 11:01:00,31.0,28.0,30.29,NW,325,0.0,0.0,88,0.00,,,0.00,,2013-03-10 17:01:00,
2013-03-10 11:11:00,31.0,28.0,30.29,NW,325,0.0,0.0,88,0.00,,,0.00,,2013-03-10 17:11:00,
2013-03-10 11:21:00,33.0,29.0,30.29,NW,321,0.0,0.0,86,0.00,,,0.00,,2013-03-10 17:21:00,
2013-03-10 11:31:00,36.0,30.0,30.28,SE,126,1.0,5.0,78,0.00,,,0.00,,2013-03-10 17:31:00,
2013-03-10 11:41:00,36.0,30.0,30.28,SE,126,1.0,5.0,78,0.00,,,0.00,,2013-03-10 17:41:00,
2013-03-10 11:51:00,37.0,30.0,30.27,ESE,108,4.0,8.0,76,0.00,,,0.00,,2013-03-10 17:51:00,
2013-03-10 12:01:00,38.0,30.0,30.26,ESE,105,5.0,9.0,74,0.00,,,0.00,,2013-03-10 18:01:00,
2013-03-10 12:11:00,38.0,30.0,30.26,ESE,105,5.0,9.0,74,0.00,,,0.00,,2013-03-10 18:11:00,
2013-03-10 12:21:00,39.0,31.0,30.25,SE,146,3.0,8.0,73,0.00,,,0.00,,2013-03-10 18:21:00,
2013-03-10 12:31:00,40.0,31.0,30.23,SE,135,5.0,10.0,70,0.00,,,0.00,,2013-03-10 18:31:00,
2013-03-10 12:41:00,40.0,31.0,30.23,SE,135,5.0,10.0,70,0.00,,,0.00,,2013-03-10 18:41:00,
2013-03-10 12:52:00,41.0,31.0,30.22,SSE,148,6.0,10.0,68,0.00,,,0.00,,2013-03-10 18:52:00,
2013-03-10 13:01:00,42.0,31.0,30.22,SE,140,5.0,10.0,65,0.00,,,0.00,,2013-03-10 19:01:00,
2013-03-10 13:11:00,42.0,31.0,30.22,SE,140,5.0,10.0,65,0.00,,,0.00,,2013-03-10 19:11:00,
2013-03-10 13:21:00,42.0,30.0,30.21,SE,135,4.0,11.0,63,0.00,,,0.00,,2013-03-10 19:21:00,
2013-03-10 13:31:00,43.0,30.0,30.19,SSE,151,5.0,12.0,61,0.00,,,0.00,,2013-03-10 19:31:00,
2013-03-10 13:41:00,43.0,30.0,30.19,SSE,151,5.0,12.0,61,0.00,,,0.00,,2013-03-10 19:41:00,
2013-03-10 13:52:00,44.0,30.0,30.19,SE,126,7.0,13.0,57,0.00,,,0.00,,2013-03-10 19:52:00,
2013-03-10 14:02:00,44.0,29.0,30.18,ESE,107,7.0,14.0,56,0.00,,,0.00,,2013-03-10 20:02:00,
2013-03-10 14:12:00,44.0,29.0,30.18,ESE,107,7.0,14.0,56,0.00,,,0.00,,2013-03-10 20:12:00,
2013-03-10 14:22:00,44.0,29.0,30.18,SE,131,7.0,12.0,56,0.00,,,0.00,,2013-03-10 20:22:00,
2013-03-10 14:32:00,44.0,29.0,30.17,SE,140,7.0,11.0,56,0.00,,,0.00,,2013-03-10 20:32:00,
2013-03-10 14:42:00,44.0,29.0,30.17,SE,140,7.0,11.0,56,0.00,,,0.00,,2013-03-10 20:42:00,
2013-03-10 14:52:00,44.0,28.0,30.16,SE,137,6.0,10.0,54,0.00,,,0.00,,2013-03-10 20:52:00,
2013-03-10 15:02:00,45.0,29.0,30.15,SE,143,4.0,9.0,54,0.00,,,0.00,,2013-03-10 21:02:00,
2013-03-10 15:12:00,45.0,29.0,30.15,SE,143,4.0,9.0,54,0.00,,,0.00,,2013-03-10 21:12:00,
2013-03-10 15:22:00,45.0,28.0,30.14,SE,126,3.0,8.0,51,0.00,,,0.00,,2013-03-10 21:22:00,
2013-03-10 15:32:00,46.0,28.0,30.14,South,171,6.0,18.0,50,0.00,,,0.00,,2013-03-10 21:32:00,
2013-03-10 15:41:00,46.0,28.0,30.14,South,171,6.0,18.0,50,0.00,,,0.00,,2013-03-10 21:41:00,
2013-03-10 15:52:00,46.0,28.0,30.13,South,170,3.0,8.0,50,0.00,,,0.00,,2013-03-10 21:52:00,
2013-03-10 16:02:00,47.0,29.0,30.12,SSE,166,3.0,8.0,50,0.00,,,0.00,,2013-03-10 22:02:00,
2013-03-10 16:11:00,47.0,29.0,30.12,SSE,166,3.0,8.0,50,0.00,,,0.00,,2013-03-10 22:11:00,
2013-03-10 16:21:00,47.0,26.0,30.11,WSW,257,6.0,13.0,44,0.00,,,0.00,,2013-03-10 22:21:00,
2013-03-10 16:32:00,47.0,26.0,30.11,SW,232,7.0,16.0,43,0.00,,,0.00,,2013-03-10 22:32:00,
2013-03-10 16:42:00,47.0,26.0,30.11,SW,232,7.0,16.0,43,0.00,,,0.00,,2013-03-10 22:42:00,
2013-03-10 16:52:00,48.0,27.0,30.11,WSW,240,3.0,12.0,43,0.00,,,0.00,,2013-03-10 22:52:00,
2013-03-10 17:02:00,48.0,27.0,30.11,WSW,237,4.0,13.0,44,0.00,,,0.00,,2013-03-10 23:02:00,
2013-03-10 17:11:00,48.0,27.0,30.10,WSW,257,5.0,11.0,43,0.00,,,0.00,,2013-03-10 23:11:00,
2013-03-10 17:22:00,48.0,27.0,30.10,WSW,257,5.0,11.0,43,0.00,,,0.00,,2013-03-10 23:22:00,
2013-03-10 17:32:00,47.0,27.0,30.10,West,261,6.0,11.0,45,0.00,,,0.00,,2013-03-10 23:32:00,
2013-03-10 17:41:00,47.0,27.0,30.10,West,261,6.0,11.0,45,0.00,,,0.00,,2013-03-10 23:41:00,
2013-03-10 17:51:00,47.0,26.0,30.10,West,260,5.0,10.0,44,0.00,,,0.00,,2013-03-10 23:51:00,
2013-03-10 18:02:00,47.0,26.0,30.10,West,274,6.0,15.0,44,0.00,,,0.00,,2013-03-11 00:02:00,
2013-03-10 18:12:00,47.0,26.0,30.10,West,274,6.0,15.0,44,0.00,,,0.00,,2013-03-11 00:12:00,
2013-03-10 18:22:00,46.0,26.0,30.10,WSW,249,6.0,12.0,46,0.00,,,0.00,,2013-03-11 00:22:00,
2013-03-10 18:32:00,46.0,26.0,30.10,West,271,4.0,13.0,46,0.00,,,0.00,,2013-03-11 00:32:00,
2013-03-10 18:42:00,46.0,26.0,30.10,West,271,4.0,13.0,46,0.00,,,0.00,,2013-03-11 00:42:00,
2013-03-10 18:52:00,45.0,24.0,30.10,WSW,242,6.0,14.0,44,0.00,,,0.00,,2013-03-11 00:52:00,
2013-03-10 19:02:00,45.0,26.0,30.10,SW,231,7.0,15.0,47,0.00,,,0.00,,2013-03-11 01:02:00,
2013-03-10 19:12:00,45.0,26.0,30.10,SW,231,7.0,15.0,47,0.00,,,0.00,,2013-03-11 01:12:00,
2013-03-10 19:22:00,44.0,27.0,30.10,WSW,250,9.0,16.0,50,0.00,,,0.00,,2013-03-11 01:22:00,
2013-03-10 19:32:00,43.0,28.0,30.10,SW,227,11.0,20.0,55,0.00,,,0.00,,2013-03-11 01:32:00,
2013-03-10 19:42:00,43.0,28.0,30.10,SW,227,11.0,20.0,55,0.00,,,0.00,,2013-03-11 01:42:00,
2013-03-10 19:52:00,42.0,28.0,30.11,SSW,211,5.0,14.0,58,0.00,,,0.00,,2013-03-11 01:52:00,
2013-03-10 20:02:00,41.0,28.0,30.11,SW,214,8.0,17.0,60,0.00,,,0.00,,2013-03-11 02:02:00,
2013-03-10 20:12:00,41.0,28.0,30.11,SW,214,8.0,17.0,60,0.00,,,0.00,,2013-03-11 02:12:00,
2013-03-10 20:22:00,41.0,29.0,30.11,South,178,7.0,15.0,62,0.00,,,0.00,,2013-03-11 02:22:00,
2013-03-10 20:32:00,40.0,28.0,30.11,SSW,194,5.0,8.0,62,0.00,,,0.00,,2013-03-11 02:32:00,
2013-03-10 20:42:00,40.0,28.0,30.11,SSW,194,5.0,8.0,62,0.00,,,0.00,,2013-03-11 02:42:00,
2013-03-10 20:52:00,40.0,28.0,30.12,SW,220,5.0,10.0,63,0.00,,,0.00,,2013-03-11 02:52:00,
2013-03-10 21:02:00,40.0,28.0,30.13,SW,217,3.0,12.0,63,0.00,,,0.00,,2013-03-11 03:02:00,
2013-03-10 21:11:00,40.0,28.0,30.13,SW,217,3.0,12.0,63,0.00,,,0.00,,2013-03-11 03:11:00,
2013-03-10 21:21:00,40.0,29.0,30.12,SW,219,7.0,11.0,65,0.00,,,0.00,,2013-03-11 03:21:00,
2013-03-10 21:32:00,40.0,29.0,30.12,South,188,4.0,11.0,65,0.00,,,0.00,,2013-03-11 03:32:00,
2013-03-10 21:42:00,40.0,29.0,30.12,South,188,4.0,11.0,65,0.00,,,0.00,,2013-03-11 03:42:00,
2013-03-10 21:52:00,40.0,29.0,30.12,SW,224,4.0,7.0,65,0.00,,,0.00,,2013-03-11 03:52:00,
2013-03-10 22:01:00,39.0,28.0,30.12,SSW,194,3.0,7.0,65,0.00,,,0.00,,2013-03-11 04:01:00,
2013-03-10 22:11:00,39.0,28.0,30.12,SSW,194,3.0,7.0,65,0.00,,,0.00,,2013-03-11 04:11:00,
2013-03-10 22:22:00,39.0,29.0,30.12,SSW,209,4.0,12.0,66,0.00,,,0.00,,2013-03-11 04:22:00,
2013-03-10 22:32:00,38.0,28.0,30.12,SSW,200,4.0,7.0,66,0.00,,,0.00,,2013-03-11 04:32:00,
2013-03-10 22:42:00,38.0,28.0,30.12,SSW,200,4.0,7.0,66,0.00,,,0.00,,2013-03-11 04:42:00,
2013-03-10 22:53:00,38.0,28.0,30.12,SSW,206,0.0,7.0,67,0.00,,,0.00,,2013-03-11 04:53:00,
2013-03-10 23:01:00,38.0,28.0,30.12,SSW,206,0.0,7.0,67,0.00,,,0.00,,2013-03-11 05:01:00,
2013-03-10 23:11:00,38.0,28.0,30.12,SSW,206,0.0,7.0,67,0.00,,,0.00,,2013-03-11 05:11:00,
2013-03-10 23:22:00,38.0,29.0,30.12,South,190,3.0,8.0,69,0.00,,,0.00,,2013-03-11 05:22:00,
2013-03-10 23:31:00,38.0,29.0,30.12,South,173,2.0,7.0,69,0.00,,,0.00,,2013-03-11 05:31:00,
2013-03-10 23:43:00,38.0,29.0,30.12,South,173,2.0,7.0,69,0.00,,,0.00,,2013-03-11 05:43:00,
2013-03-10 23:52:00,39.0,30.0,30.11,SSW,200,2.0,8.0,69,0.00,,,0.00,,2013-03-11 05:52:00,